Hauptseite
METAR-TAF:

METAR-TAF

Flughäfen :

San Juan, Puerto Rico, Vereinigte Staaten

Breite: 18-27-24N, Länge: 066-05-54W, Höhe: 3 m

Beobachtung

Neuester Wetterbericht von vor 16 Minuten, um 11:50 UTC
Wind 8 kt aus Ost
Temperatur 28°C
Luftfeuchtigkeit 74%
Luftdruck 1020 hPa
Sichtweite: 11.3 km
Aufgelockert bewölkt in der Höhe von 3000 ft
Aufgelockert bewölkt in der Höhe von 7000 ft
trockener Dunst

METAR: TJIG 181150Z 09008KT 7SM HZ SCT030 SCT070 28/23 A3012

Zeit: 08:06 (12:06 UTC)


TAF: fehlend

Wetterbeobachtungen und Prognosen von mehr als 4000 Flughäfen (METAR und TAF Bericht).

Die verfügbaren Stationen werden durch gelbe und rote Markierungen auf der Karte dargestellt.

Führen Sie die Maus auf sie, um den Namen der Station zu sehen.

Darauf klicken, um die Beobachtung von Wetterbeobachtungen und Prognosen zu sehen.

Um die Karte zu ändern : klicken Sie auf den grünen Tasten mit einem schwarzen Kreuz Zum Vergrößern, auf den grünen Button mit einem Gedankenstrich zu verkleinern, oder auf die grünen Pfeile für benachbarte Karten.


METAR-TAF: